Pagrindinis puslapis
METAR-TAF:

METAR-TAF

Oro uostai :

Patna, Indija

platuma: 25-36N, ilguma: 085-06E, Aukštis: 51 m

Dabartinis oras

Ataskaita buvo paskelbta 36 minutes, ne 06:00 UTC
Vėjas 3 kt iš Vakarų/Pietvakarių
Temperatūra 35°C
Drėgmė 19%
Slėgis 1011 hPa
Matomumas: 5000 m
migla

METAR: VEPT 100600Z 25003KT 5000 HZ NSC 35/08 Q1011 NOSIG

Laikas: 12:06 (06:36 UTC)

Prognozė

Ataskaita buvo paskelbta 1 valandą ir 36 minutes, ne 05:00 UTC
Prognozė galioja nuo 10 metu 06 UTC su 11 metu 12 UTC
Vėjas 4 kt iš Pietvakarių
Matomumas: 5000 m
migla
Tapsmas
nuo 10 metu 13 UTC su 10 metu 15 UTC
Vėjas kt iš Šiaurės
Matomumas: 4000 m
migla
Tapsmas
nuo 10 metu 23 UTC su 11 metu 01 UTC
Matomumas: 3000 m
migla
Tapsmas
nuo 11 metu 04 UTC su 11 metu 06 UTC
Vėjas 4 kt iš Vakarų
Matomumas: 4000 m
Tapsmas
nuo 11 metu 08 UTC su 11 metu 10 UTC
Matomumas: 6000 m

TAF: VEPT 100500Z 1006/1112 23004KT 5000 HZ NSC BECMG 1013/1015 00000KT 4000 HZ BECMG 1023/1101 3000 HZ BECMG 1104/1106 27004KT 4000 BECMG 1108/1110 6000

Orai ataskaitas ir orų prognozės (METAR, TAF).

turimą stotys yra geltonos ir raudonos taškus žemėlapyje.

Perkelti pele per norėdami pamatyti stoties vardą.

Tada spustelėkite, norėdami matyti oro stebėjimo ir prognozės.

Norėdami pakeisti žemėlapį: spustelėkite ant žalios mygtukų su juodo kryžiaus žemyn,; žalią mygtuką su brūkšneliu, jei norite nutolinti; arba žalių rodyklių gretimoms žemėlapius.


METAR-TAF: